Time;durP1;ratioP1;P1;durP2;ratioP2;P2;SDS_P1;SDS_P2;PMS_P1;PMS_P2;Temp;Humidity;BMP_temperature;BMP_pressure;BME280_temperature;BME280_humidity;BME280_pressure;Samples;Min_cycle;Max_cycle;Signal;HPM_P1;HPM_P2
2024/01/21 00:00:54;;;;;;;13.23;7.38;;;;;;;;;;5048070;28;20791;-83
2024/01/21 00:03:20;;;;;;;12.18;6.57;;;;;;;;;;5032351;28;20083;-84
2024/01/21 00:05:46;;;;;;;12.95;6.07;;;;;;;;;;5048546;28;20135;-83
2024/01/21 00:08:12;;;;;;;10.20;5.97;;;;;;;;;;5039146;28;20078;-83
2024/01/21 00:10:38;;;;;;;11.43;6.20;;;;;;;;;;5035181;28;20387;-85
2024/01/21 00:13:04;;;;;;;11.98;6.90;;;;;;;;;;5039759;28;20041;-82
2024/01/21 00:15:30;;;;;;;13.45;6.10;;;;;;;;;;5042499;28;20043;-84
2024/01/21 00:17:56;;;;;;;12.35;6.47;;;;;;;;;;5054075;28;20049;-82
2024/01/21 00:20:22;;;;;;;12.98;7.13;;;;;;;;;;5041778;28;20063;-83
2024/01/21 00:22:48;;;;;;;11.43;6.53;;;;;;;;;;5047308;28;20045;-83
2024/01/21 00:25:14;;;;;;;10.82;6.57;;;;;;;;;;5054634;28;20040;-83
2024/01/21 00:27:40;;;;;;;11.85;6.50;;;;;;;;;;5045544;28;20806;-84
2024/01/21 00:30:06;;;;;;;10.45;6.50;;;;;;;;;;5028810;28;20048;-82
2024/01/21 00:32:32;;;;;;;10.63;5.65;;;;;;;;;;5045483;28;20048;-84
2024/01/21 00:34:58;;;;;;;14.35;7.38;;;;;;;;;;5030526;28;20041;-83
2024/01/21 00:37:24;;;;;;;11.95;6.68;;;;;;;;;;5029743;28;20135;-83
2024/01/21 00:39:50;;;;;;;12.38;6.68;;;;;;;;;;5033125;28;20052;-83
2024/01/21 00:42:16;;;;;;;13.20;7.03;;;;;;;;;;5028841;28;20048;-83
2024/01/21 00:44:42;;;;;;;7.68;4.75;;;;;;;;;;5035434;28;20760;-83
2024/01/21 00:47:08;;;;;;;18.40;8.05;;;;;;;;;;5054956;28;20045;-84
2024/01/21 00:49:34;;;;;;;11.38;7.00;;;;;;;;;;5032747;28;20048;-84
2024/01/21 00:52:00;;;;;;;13.27;6.35;;;;;;;;;;5029814;28;20103;-83
2024/01/21 00:54:26;;;;;;;12.73;6.35;;;;;;;;;;5056700;28;20044;-85
2024/01/21 00:56:52;;;;;;;11.05;7.20;;;;;;;;;;5030719;28;20094;-83
2024/01/21 00:59:18;;;;;;;10.55;5.47;;;;;;;;;;5050154;28;20550;-85
2024/01/21 01:01:44;;;;;;;12.30;7.00;;;;;;;;;;5028611;28;20044;-86
2024/01/21 01:04:10;;;;;;;11.18;6.22;;;;;;;;;;5030345;28;20041;-84
2024/01/21 01:06:36;;;;;;;11.98;6.25;;;;;;;;;;5031310;28;20041;-84
2024/01/21 01:09:04;;;;;;;14.02;6.47;;;;;;;;;;5029145;28;20052;-83
2024/01/21 01:11:30;;;;;;;16.25;7.13;;;;;;;;;;5039348;28;20094;-83
2024/01/21 01:13:57;;;;;;;12.73;7.10;;;;;;;;;;5028608;28;20075;-85
2024/01/21 01:16:23;;;;;;;11.45;7.00;;;;;;;;;;5040723;28;20105;-83
2024/01/21 01:18:49;;;;;;;12.52;6.53;;;;;;;;;;5055335;28;20095;-83
2024/01/21 01:21:15;;;;;;;13.38;5.88;;;;;;;;;;5046420;28;20049;-82
2024/01/21 01:23:41;;;;;;;11.98;6.43;;;;;;;;;;5038194;28;20056;-82
2024/01/21 01:26:08;;;;;;;12.05;6.82;;;;;;;;;;5031565;28;20045;-83
2024/01/21 01:28:34;;;;;;;11.95;5.95;;;;;;;;;;5049438;28;20114;-83
2024/01/21 01:31:00;;;;;;;10.18;4.90;;;;;;;;;;5034198;28;20041;-86
2024/01/21 01:33:26;;;;;;;11.70;6.00;;;;;;;;;;5038534;28;20041;-83
2024/01/21 01:35:52;;;;;;;11.07;5.38;;;;;;;;;;5034061;28;20123;-83
2024/01/21 01:38:18;;;;;;;15.88;7.10;;;;;;;;;;5053168;28;20473;-83
2024/01/21 01:40:44;;;;;;;12.80;6.45;;;;;;;;;;5028363;28;20037;-82
2024/01/21 01:43:10;;;;;;;10.65;5.43;;;;;;;;;;5028119;28;20262;-85
2024/01/21 01:45:36;;;;;;;12.00;6.45;;;;;;;;;;5027381;28;20048;-83
2024/01/21 01:48:03;;;;;;;9.10;4.57;;;;;;;;;;5028298;28;20045;-82
2024/01/21 01:50:30;;;;;;;6.97;4.43;;;;;;;;;;5046994;28;20088;-82
2024/01/21 01:52:57;;;;;;;12.68;6.32;;;;;;;;;;5048669;28;20132;-83
2024/01/21 01:55:23;;;;;;;11.38;6.05;;;;;;;;;;5044453;28;20043;-84
2024/01/21 01:57:49;;;;;;;8.88;5.18;;;;;;;;;;5027050;28;20044;-84
2024/01/21 02:00:15;;;;;;;10.48;6.35;;;;;;;;;;5034443;28;20122;-83
2024/01/21 02:02:43;;;;;;;11.80;5.32;;;;;;;;;;5047041;28;20036;-83
2024/01/21 02:05:09;;;;;;;8.50;4.63;;;;;;;;;;5052278;28;20577;-83
2024/01/21 02:07:35;;;;;;;10.07;5.03;;;;;;;;;;5058426;28;20045;-83
2024/01/21 02:10:01;;;;;;;5.60;3.53;;;;;;;;;;5046179;28;20048;-84
2024/01/21 02:12:28;;;;;;;8.63;5.40;;;;;;;;;;5046846;28;20059;-82
2024/01/21 02:14:54;;;;;;;8.57;4.88;;;;;;;;;;5054086;28;20064;-83
2024/01/21 02:17:20;;;;;;;11.52;5.45;;;;;;;;;;5029242;28;20129;-84
2024/01/21 02:19:46;;;;;;;12.23;6.47;;;;;;;;;;5031129;28;20048;-82
2024/01/21 02:22:12;;;;;;;8.85;5.55;;;;;;;;;;5053947;28;20041;-83
2024/01/21 02:24:39;;;;;;;8.93;5.53;;;;;;;;;;5052041;28;20759;-83
2024/01/21 02:27:05;;;;;;;7.97;4.68;;;;;;;;;;5047836;28;20049;-83
2024/01/21 02:29:31;;;;;;;10.60;5.78;;;;;;;;;;5038454;28;20040;-84
2024/01/21 02:31:58;;;;;;;7.50;4.15;;;;;;;;;;5035224;28;20227;-83
2024/01/21 02:34:24;;;;;;;9.13;4.55;;;;;;;;;;5033601;28;20048;-83
2024/01/21 02:36:50;;;;;;;11.27;5.22;;;;;;;;;;5030928;28;20110;-84
2024/01/21 02:39:16;;;;;;;9.00;4.35;;;;;;;;;;5051270;28;20060;-83
2024/01/21 02:41:43;;;;;;;7.55;4.15;;;;;;;;;;5049105;28;20056;-84
2024/01/21 02:44:09;;;;;;;8.80;4.07;;;;;;;;;;5046251;28;20049;-82
2024/01/21 02:46:35;;;;;;;10.52;3.55;;;;;;;;;;5049862;28;20375;-82
2024/01/21 02:49:01;;;;;;;8.00;4.55;;;;;;;;;;5038214;28;20052;-83
2024/01/21 02:51:27;;;;;;;8.63;4.95;;;;;;;;;;5037292;28;20041;-84
2024/01/21 02:53:53;;;;;;;7.53;4.80;;;;;;;;;;5030646;28;20033;-83
2024/01/21 02:56:21;;;;;;;8.27;3.72;;;;;;;;;;5022636;28;20049;-83
2024/01/21 02:58:47;;;;;;;8.43;4.18;;;;;;;;;;5036314;28;20095;-83
2024/01/21 03:01:13;;;;;;;8.05;4.28;;;;;;;;;;5049895;28;20045;-82
2024/01/21 03:03:39;;;;;;;8.68;3.92;;;;;;;;;;5047822;28;20051;-83
2024/01/21 03:06:05;;;;;;;7.13;3.78;;;;;;;;;;5054559;28;20422;-83
2024/01/21 03:08:31;;;;;;;4.95;2.72;;;;;;;;;;5047880;28;20052;-83
2024/01/21 03:10:57;;;;;;;7.38;4.05;;;;;;;;;;5050402;28;20082;-84
2024/01/21 03:13:23;;;;;;;8.00;3.90;;;;;;;;;;5046544;28;20060;-84
2024/01/21 03:15:49;;;;;;;7.43;3.80;;;;;;;;;;5033162;28;20051;-82
2024/01/21 03:18:15;;;;;;;7.90;3.88;;;;;;;;;;5037134;28;20055;-84
2024/01/21 03:20:41;;;;;;;6.25;3.63;;;;;;;;;;5052433;28;20048;-83
2024/01/21 03:23:07;;;;;;;7.40;3.75;;;;;;;;;;5038180;28;20102;-84
2024/01/21 03:25:33;;;;;;;4.88;3.17;;;;;;;;;;5032318;28;20045;-82
2024/01/21 03:27:59;;;;;;;5.07;3.30;;;;;;;;;;5036414;28;20414;-82
2024/01/21 03:30:26;;;;;;;5.80;4.10;;;;;;;;;;5034668;28;20072;-84
2024/01/21 03:32:52;;;;;;;5.80;3.45;;;;;;;;;;5024250;28;20048;-83
2024/01/21 03:35:18;;;;;;;7.15;3.78;;;;;;;;;;5041053;28;20048;-85
2024/01/21 03:37:44;;;;;;;5.43;3.50;;;;;;;;;;5041371;28;20080;-83
2024/01/21 03:40:10;;;;;;;9.13;3.60;;;;;;;;;;5030701;28;20862;-84
2024/01/21 03:42:36;;;;;;;4.15;3.20;;;;;;;;;;5031640;28;20051;-83
2024/01/21 03:45:02;;;;;;;6.40;3.78;;;;;;;;;;5028921;28;20049;-83
2024/01/21 03:47:28;;;;;;;5.80;3.42;;;;;;;;;;5046673;28;20123;-86
2024/01/21 03:49:54;;;;;;;5.35;3.30;;;;;;;;;;5050563;28;20119;-83
2024/01/21 03:52:21;;;;;;;5.13;3.22;;;;;;;;;;5046077;28;20041;-84
2024/01/21 03:54:47;;;;;;;5.70;3.92;;;;;;;;;;5031178;28;20044;-84
2024/01/21 03:57:13;;;;;;;5.22;3.13;;;;;;;;;;5063015;28;20050;-83
2024/01/21 03:59:42;;;;;;;5.32;3.53;;;;;;;;;;5040575;28;20044;-87
2024/01/21 04:02:08;;;;;;;8.15;3.35;;;;;;;;;;5045347;28;20040;-84
2024/01/21 04:04:34;;;;;;;6.05;3.85;;;;;;;;;;5028360;28;20145;-84
2024/01/21 04:07:00;;;;;;;6.45;3.78;;;;;;;;;;5043112;28;20748;-82
2024/01/21 04:09:26;;;;;;;7.65;4.13;;;;;;;;;;5032304;28;20047;-84
2024/01/21 04:11:52;;;;;;;4.60;3.05;;;;;;;;;;5043314;28;20041;-83
2024/01/21 04:14:18;;;;;;;6.47;3.40;;;;;;;;;;5049217;28;20040;-84
2024/01/21 04:16:44;;;;;;;5.70;3.42;;;;;;;;;;5048938;28;20124;-84
2024/01/21 04:19:12;;;;;;;4.38;3.15;;;;;;;;;;5029143;28;20120;-85
2024/01/21 04:21:38;;;;;;;4.55;3.70;;;;;;;;;;5035867;28;20044;-83
2024/01/21 04:24:04;;;;;;;5.55;2.97;;;;;;;;;;5028799;28;20055;-83
2024/01/21 04:26:33;;;;;;;4.90;3.00;;;;;;;;;;5048092;28;20462;-82
2024/01/21 04:28:59;;;;;;;5.50;3.22;;;;;;;;;;5056772;28;20049;-85
2024/01/21 04:31:25;;;;;;;6.63;3.65;;;;;;;;;;5051511;28;20033;-82
2024/01/21 04:33:51;;;;;;;5.28;2.80;;;;;;;;;;5040417;28;20075;-85
2024/01/21 04:36:18;;;;;;;4.55;2.92;;;;;;;;;;5044327;28;20127;-85
2024/01/21 04:38:44;;;;;;;5.28;3.22;;;;;;;;;;5052699;28;20071;-83
2024/01/21 04:41:10;;;;;;;6.30;3.30;;;;;;;;;;5049913;28;20100;-83
2024/01/21 04:43:36;;;;;;;4.75;2.88;;;;;;;;;;5031833;28;20127;-83
2024/01/21 04:46:02;;;;;;;3.60;2.78;;;;;;;;;;5054786;28;20777;-83
2024/01/21 04:48:28;;;;;;;5.25;2.30;;;;;;;;;;5053783;28;20542;-83
2024/01/21 04:50:54;;;;;;;5.88;3.15;;;;;;;;;;5045834;28;20170;-83
2024/01/21 04:53:20;;;;;;;3.42;2.50;;;;;;;;;;5050902;28;20097;-84
2024/01/21 04:55:46;;;;;;;3.17;2.20;;;;;;;;;;5034809;28;20319;-84
2024/01/21 04:58:12;;;;;;;3.95;2.80;;;;;;;;;;5053449;28;20053;-84
2024/01/21 05:00:38;;;;;;;5.13;2.97;;;;;;;;;;5052776;28;20044;-82
2024/01/21 05:03:04;;;;;;;4.80;2.65;;;;;;;;;;5059182;28;20700;-83
2024/01/21 05:05:30;;;;;;;5.18;2.83;;;;;;;;;;5045885;28;20047;-83
2024/01/21 05:07:56;;;;;;;3.78;2.80;;;;;;;;;;5043079;28;20041;-83
2024/01/21 05:10:23;;;;;;;4.28;3.30;;;;;;;;;;5041002;28;20037;-83
2024/01/21 05:12:49;;;;;;;5.13;3.40;;;;;;;;;;5026307;28;20048;-83
2024/01/21 05:15:15;;;;;;;2.92;1.88;;;;;;;;;;5047274;28;20041;-84
2024/01/21 05:17:41;;;;;;;4.25;2.90;;;;;;;;;;5037716;28;20048;-83
2024/01/21 05:20:08;;;;;;;5.13;2.78;;;;;;;;;;5045150;28;20053;-83
2024/01/21 05:22:34;;;;;;;4.72;3.10;;;;;;;;;;5032286;28;20040;-83
2024/01/21 05:25:00;;;;;;;3.65;2.55;;;;;;;;;;5049766;28;20414;-83
2024/01/21 05:27:26;;;;;;;4.22;3.17;;;;;;;;;;5036382;28;20044;-83
2024/01/21 05:29:52;;;;;;;5.15;2.70;;;;;;;;;;5046774;28;20047;-84
2024/01/21 05:32:18;;;;;;;4.35;2.83;;;;;;;;;;5044416;28;20124;-84
2024/01/21 05:34:44;;;;;;;6.10;3.80;;;;;;;;;;5033560;28;20041;-82
2024/01/21 05:37:10;;;;;;;5.13;2.80;;;;;;;;;;5039802;28;20037;-85
2024/01/21 05:39:36;;;;;;;4.60;3.03;;;;;;;;;;5040283;28;20048;-84
2024/01/21 05:42:07;;;;;;;5.30;2.95;;;;;;;;;;5037770;28;20635;-82
2024/01/21 05:44:33;;;;;;;4.78;3.08;;;;;;;;;;5044562;28;20061;-84
2024/01/21 05:46:59;;;;;;;6.10;3.03;;;;;;;;;;5045706;28;20052;-83
2024/01/21 05:49:26;;;;;;;5.97;2.80;;;;;;;;;;5039524;28;20769;-82
2024/01/21 05:51:52;;;;;;;5.28;3.20;;;;;;;;;;5048730;28;20061;-83
2024/01/21 05:54:19;;;;;;;5.50;2.97;;;;;;;;;;5040486;28;20080;-83
2024/01/21 05:56:45;;;;;;;5.35;3.00;;;;;;;;;;5028575;28;20399;-83
2024/01/21 05:59:13;;;;;;;5.25;2.90;;;;;;;;;;5063526;28;20049;-84
2024/01/21 06:01:39;;;;;;;5.13;3.08;;;;;;;;;;5041247;28;20057;-85
2024/01/21 06:04:05;;;;;;;4.95;2.75;;;;;;;;;;5021989;28;20063;-82
2024/01/21 06:06:31;;;;;;;6.00;2.92;;;;;;;;;;5049045;28;20445;-83
2024/01/21 06:08:57;;;;;;;5.50;3.05;;;;;;;;;;5061950;28;20321;-85
2024/01/21 06:11:24;;;;;;;5.85;3.25;;;;;;;;;;5066466;28;20111;-83
2024/01/21 06:13:50;;;;;;;7.68;3.55;;;;;;;;;;5038494;28;20041;-83
2024/01/21 06:16:17;;;;;;;5.70;3.17;;;;;;;;;;5023088;28;20037;-83
2024/01/21 06:18:43;;;;;;;6.75;4.07;;;;;;;;;;5047101;28;20041;-84
2024/01/21 06:21:09;;;;;;;6.15;3.35;;;;;;;;;;5046586;28;20052;-82
2024/01/21 06:23:35;;;;;;;4.70;3.03;;;;;;;;;;5044704;28;20037;-84
2024/01/21 06:26:01;;;;;;;9.10;3.60;;;;;;;;;;5038486;28;20110;-82
2024/01/21 06:28:27;;;;;;;4.90;3.42;;;;;;;;;;5055661;28;20037;-82
2024/01/21 06:30:53;;;;;;;4.78;2.70;;;;;;;;;;5031111;28;20029;-84
2024/01/21 06:33:19;;;;;;;4.85;3.67;;;;;;;;;;5048576;28;20095;-84
2024/01/21 06:35:45;;;;;;;9.82;3.95;;;;;;;;;;5030262;28;20060;-83
2024/01/21 06:38:11;;;;;;;7.25;3.72;;;;;;;;;;5058128;28;20060;-83
2024/01/21 06:40:37;;;;;;;6.05;3.85;;;;;;;;;;5036802;28;20068;-84
2024/01/21 06:43:03;;;;;;;6.88;3.33;;;;;;;;;;5052912;28;20463;-83
2024/01/21 06:45:29;;;;;;;6.68;3.63;;;;;;;;;;5044859;28;20050;-83
2024/01/21 06:47:55;;;;;;;6.10;3.58;;;;;;;;;;5040247;28;20050;-83
2024/01/21 06:50:21;;;;;;;6.15;3.40;;;;;;;;;;5037052;28;20410;-83
2024/01/21 06:52:49;;;;;;;7.47;4.22;;;;;;;;;;5051807;28;20048;-85
2024/01/21 06:55:15;;;;;;;6.53;3.45;;;;;;;;;;5036984;28;20039;-84
2024/01/21 06:57:41;;;;;;;8.52;4.05;;;;;;;;;;5037172;28;20490;-83
2024/01/21 07:00:07;;;;;;;5.53;3.47;;;;;;;;;;5040474;28;20063;-84
2024/01/21 07:02:33;;;;;;;5.38;3.28;;;;;;;;;;5031302;28;20122;-83
2024/01/21 07:04:59;;;;;;;6.38;3.40;;;;;;;;;;5048698;28;20706;-82
2024/01/21 07:07:25;;;;;;;7.65;3.75;;;;;;;;;;5051113;28;20056;-83
2024/01/21 07:09:51;;;;;;;6.07;3.67;;;;;;;;;;5054125;28;20056;-83
2024/01/21 07:12:17;;;;;;;5.65;3.83;;;;;;;;;;5056054;28;20072;-84
2024/01/21 07:14:43;;;;;;;6.15;3.33;;;;;;;;;;5036826;28;20048;-83
2024/01/21 07:17:10;;;;;;;6.35;3.78;;;;;;;;;;5031715;28;20036;-83
2024/01/21 07:19:39;;;;;;;6.25;3.30;;;;;;;;;;5044907;28;20490;-83
2024/01/21 07:22:05;;;;;;;6.35;4.40;;;;;;;;;;5044528;28;20050;-84
2024/01/21 07:24:31;;;;;;;6.90;4.28;;;;;;;;;;5045547;28;20029;-83
2024/01/21 07:26:57;;;;;;;8.40;3.65;;;;;;;;;;5045773;28;20044;-83
2024/01/21 07:29:23;;;;;;;6.15;3.50;;;;;;;;;;5045777;28;20044;-83
2024/01/21 07:31:50;;;;;;;6.75;4.25;;;;;;;;;;5033510;28;20051;-83
2024/01/21 07:34:16;;;;;;;7.28;4.30;;;;;;;;;;5023526;28;20141;-83
2024/01/21 07:36:42;;;;;;;6.22;3.88;;;;;;;;;;5057808;28;20059;-82
2024/01/21 07:39:08;;;;;;;7.68;3.63;;;;;;;;;;5025612;28;20068;-83
2024/01/21 07:41:34;;;;;;;7.38;3.88;;;;;;;;;;5031150;28;20505;-83
2024/01/21 07:44:00;;;;;;;6.82;4.05;;;;;;;;;;5027606;28;20464;-82
2024/01/21 07:46:26;;;;;;;9.15;4.00;;;;;;;;;;5056368;28;20041;-85
2024/01/21 07:48:52;;;;;;;7.22;3.70;;;;;;;;;;5032178;28;20114;-82
2024/01/21 07:51:19;;;;;;;5.53;3.72;;;;;;;;;;5048826;28;20130;-82
2024/01/21 07:53:45;;;;;;;7.70;3.88;;;;;;;;;;5025414;28;20429;-82
2024/01/21 07:56:11;;;;;;;6.95;3.30;;;;;;;;;;5032553;28;20051;-83
2024/01/21 07:58:37;;;;;;;7.85;3.53;;;;;;;;;;5034330;28;20049;-83
2024/01/21 08:01:07;;;;;;;8.82;4.32;;;;;;;;;;5037432;28;20135;-83
2024/01/21 08:03:33;;;;;;;7.57;4.40;;;;;;;;;;5034602;28;20041;-83
2024/01/21 08:05:59;;;;;;;6.78;4.18;;;;;;;;;;5037981;28;20052;-82
2024/01/21 08:08:25;;;;;;;6.80;4.57;;;;;;;;;;5032223;28;20124;-84
2024/01/21 08:10:51;;;;;;;7.03;3.95;;;;;;;;;;5049022;28;20543;-83
2024/01/21 08:13:17;;;;;;;7.43;4.20;;;;;;;;;;5043031;28;20535;-83
2024/01/21 08:15:43;;;;;;;5.93;4.22;;;;;;;;;;5040572;28;20060;-83
2024/01/21 08:18:09;;;;;;;6.43;4.35;;;;;;;;;;5033698;28;20489;-83
2024/01/21 08:20:35;;;;;;;5.03;3.70;;;;;;;;;;5046841;28;20041;-83
2024/01/21 08:23:02;;;;;;;8.38;4.68;;;;;;;;;;5045290;28;20581;-84
2024/01/21 08:25:28;;;;;;;7.15;4.72;;;;;;;;;;5034582;28;20048;-83
2024/01/21 08:27:54;;;;;;;7.53;3.95;;;;;;;;;;5047045;28;20139;-83
2024/01/21 08:30:20;;;;;;;7.68;4.05;;;;;;;;;;5042826;28;20059;-84
2024/01/21 08:32:46;;;;;;;9.32;4.25;;;;;;;;;;5044529;28;20032;-83
2024/01/21 08:35:12;;;;;;;6.95;4.22;;;;;;;;;;5027660;28;20041;-82
2024/01/21 08:37:38;;;;;;;6.57;3.58;;;;;;;;;;5045572;28;20057;-83
2024/01/21 08:40:04;;;;;;;5.70;4.15;;;;;;;;;;5045840;28;20103;-82
2024/01/21 08:42:31;;;;;;;8.60;4.55;;;;;;;;;;5041874;28;20170;-82
2024/01/21 08:44:57;;;;;;;6.68;4.40;;;;;;;;;;5044758;28;20144;-85
2024/01/21 08:47:23;;;;;;;7.78;4.95;;;;;;;;;;5029802;28;20274;-83
2024/01/21 08:49:49;;;;;;;7.15;4.25;;;;;;;;;;5027213;28;20550;-82
2024/01/21 08:52:15;;;;;;;10.77;4.93;;;;;;;;;;5033728;28;20048;-82
2024/01/21 08:54:41;;;;;;;9.68;4.60;;;;;;;;;;5043648;28;20075;-83
2024/01/21 08:57:07;;;;;;;7.15;4.22;;;;;;;;;;5027833;28;20151;-84
2024/01/21 08:59:33;;;;;;;6.90;4.50;;;;;;;;;;5033503;28;20043;-84
2024/01/21 09:01:59;;;;;;;9.95;4.63;;;;;;;;;;5029069;28;20041;-83
2024/01/21 09:04:25;;;;;;;6.53;4.30;;;;;;;;;;5020301;28;20423;-83
2024/01/21 09:06:51;;;;;;;6.80;4.53;;;;;;;;;;5022437;28;20048;-84
2024/01/21 09:09:17;;;;;;;7.45;4.72;;;;;;;;;;5046189;28;20077;-82
2024/01/21 09:11:43;;;;;;;8.90;5.07;;;;;;;;;;5046452;28;20121;-82
2024/01/21 09:14:09;;;;;;;12.10;5.20;;;;;;;;;;5024065;28;20052;-82
2024/01/21 09:16:35;;;;;;;7.82;4.82;;;;;;;;;;5043806;28;20102;-83
2024/01/21 09:19:02;;;;;;;9.20;5.45;;;;;;;;;;5025347;28;20041;-82
2024/01/21 09:21:28;;;;;;;9.75;4.97;;;;;;;;;;5051237;28;20052;-81
2024/01/21 09:23:55;;;;;;;7.82;5.05;;;;;;;;;;5044374;28;20040;-86
2024/01/21 09:26:21;;;;;;;10.27;4.72;;;;;;;;;;5033936;28;20051;-82
2024/01/21 09:28:47;;;;;;;8.57;5.28;;;;;;;;;;5029446;28;20037;-84
2024/01/21 09:31:13;;;;;;;9.25;4.60;;;;;;;;;;5039499;28;20110;-83
2024/01/21 09:33:39;;;;;;;7.90;4.75;;;;;;;;;;5023660;28;20380;-85
2024/01/21 09:36:05;;;;;;;7.70;4.28;;;;;;;;;;5025405;28;20043;-84
2024/01/21 09:38:31;;;;;;;8.60;5.05;;;;;;;;;;5026472;28;20061;-83
2024/01/21 09:41:01;;;;;;;7.55;4.60;;;;;;;;;;5041514;28;20057;-84
2024/01/21 09:43:29;;;;;;;7.75;4.70;;;;;;;;;;5028738;28;20044;-84
2024/01/21 09:45:56;;;;;;;8.50;4.97;;;;;;;;;;5042390;28;20065;-84
2024/01/21 09:48:23;;;;;;;9.98;4.70;;;;;;;;;;5026076;28;20037;-83
2024/01/21 09:50:50;;;;;;;7.88;4.72;;;;;;;;;;5019430;28;20083;-83
2024/01/21 09:53:16;;;;;;;9.43;4.45;;;;;;;;;;5057544;28;20078;-83
2024/01/21 09:55:42;;;;;;;7.63;4.72;;;;;;;;;;5032332;28;20563;-84
2024/01/21 09:58:11;;;;;;;7.32;4.32;;;;;;;;;;5031358;28;20097;-84
2024/01/21 10:00:37;;;;;;;7.95;4.65;;;;;;;;;;5025552;28;20574;-83
2024/01/21 10:03:03;;;;;;;7.20;4.18;;;;;;;;;;5049950;28;20115;-85
2024/01/21 10:05:29;;;;;;;8.85;5.45;;;;;;;;;;5042570;28;20048;-84
2024/01/21 10:07:55;;;;;;;7.63;4.68;;;;;;;;;;5016822;28;20049;-84
2024/01/21 10:10:23;;;;;;;8.52;4.80;;;;;;;;;;5028845;28;20080;-83
2024/01/21 10:12:49;;;;;;;7.82;5.07;;;;;;;;;;5026154;28;20063;-84
2024/01/21 10:15:15;;;;;;;8.50;4.97;;;;;;;;;;5025904;28;20819;-84
2024/01/21 10:17:42;;;;;;;8.85;5.53;;;;;;;;;;5040812;28;20045;-84
2024/01/21 10:20:12;;;;;;;9.55;5.22;;;;;;;;;;5038114;28;20884;-83
2024/01/21 10:22:41;;;;;;;6.45;3.85;;;;;;;;;;5025908;28;20070;-86
2024/01/21 10:25:09;;;;;;;8.65;5.07;;;;;;;;;;5026417;28;20045;-83
2024/01/21 10:27:35;;;;;;;6.75;4.88;;;;;;;;;;5022435;28;20041;-84
2024/01/21 10:30:01;;;;;;;9.05;5.00;;;;;;;;;;5017064;28;20059;-84
2024/01/21 10:32:27;;;;;;;9.13;4.90;;;;;;;;;;5025973;28;20041;-85
2024/01/21 10:34:53;;;;;;;9.15;5.28;;;;;;;;;;5023027;28;20033;-83
2024/01/21 10:37:19;;;;;;;10.30;5.40;;;;;;;;;;5040102;28;20709;-84
2024/01/21 10:39:46;;;;;;;8.40;5.55;;;;;;;;;;5027385;28;20040;-83
2024/01/21 10:42:13;;;;;;;12.15;5.80;;;;;;;;;;5026619;28;20037;-84
2024/01/21 10:44:40;;;;;;;11.07;5.47;;;;;;;;;;5022219;28;20041;-82
2024/01/21 10:47:08;;;;;;;8.18;5.50;;;;;;;;;;5045538;28;20387;-85
2024/01/21 10:49:35;;;;;;;7.80;5.32;;;;;;;;;;5037105;28;20545;-84
2024/01/21 10:52:01;;;;;;;9.27;5.22;;;;;;;;;;5034385;28;20498;-83
2024/01/21 10:54:27;;;;;;;8.98;5.43;;;;;;;;;;5029610;28;20135;-85
2024/01/21 10:56:53;;;;;;;9.25;5.25;;;;;;;;;;5029091;28;20538;-83
2024/01/21 10:59:20;;;;;;;9.10;5.53;;;;;;;;;;5024799;28;20046;-84
2024/01/21 11:01:47;;;;;;;8.02;5.60;;;;;;;;;;5029439;28;20041;-84
2024/01/21 11:04:13;;;;;;;9.15;5.80;;;;;;;;;;5046303;28;20049;-83
2024/01/21 11:06:50;;;;;;;9.93;6.10;;;;;;;;;;5029220;28;20200;-84
2024/01/21 11:09:17;;;;;;;12.38;5.63;;;;;;;;;;5027337;28;20043;-83
2024/01/21 11:11:44;;;;;;;11.50;5.97;;;;;;;;;;5045193;28;20047;-84
2024/01/21 11:14:33;;;;;;;8.48;5.88;;;;;;;;;;5044740;28;20045;-85
2024/01/21 11:17:00;;;;;;;11.25;5.63;;;;;;;;;;5031006;28;20098;-84
2024/01/21 11:19:30;;;;;;;9.98;5.70;;;;;;;;;;5041254;28;20041;-83
2024/01/21 11:21:58;;;;;;;11.75;6.05;;;;;;;;;;5045847;28;20076;-83
2024/01/21 11:24:30;;;;;;;10.25;5.55;;;;;;;;;;5022734;28;20514;-83
2024/01/21 11:26:57;;;;;;;7.15;4.80;;;;;;;;;;5024813;28;20049;-83
2024/01/21 11:29:24;;;;;;;10.25;5.65;;;;;;;;;;5028494;28;20048;-83
2024/01/21 11:31:51;;;;;;;12.98;6.57;;;;;;;;;;5043679;28;20048;-83
2024/01/21 11:34:17;;;;;;;9.68;5.63;;;;;;;;;;5029348;28;20456;-83
2024/01/21 11:36:44;;;;;;;12.60;5.97;;;;;;;;;;5025009;28;20124;-83
2024/01/21 11:39:10;;;;;;;7.47;4.43;;;;;;;;;;5045744;28;20790;-83
2024/01/21 11:41:38;;;;;;;8.65;5.78;;;;;;;;;;5045431;28;20120;-84
2024/01/21 11:44:23;;;;;;;12.82;6.03;;;;;;;;;;5044973;28;20098;-83
2024/01/21 11:46:49;;;;;;;9.50;5.85;;;;;;;;;;5027870;28;20099;-83
2024/01/21 11:49:16;;;;;;;12.43;6.78;;;;;;;;;;5028504;28;20045;-86
2024/01/21 11:51:44;;;;;;;9.65;5.32;;;;;;;;;;5028226;28;20051;-83
2024/01/21 11:54:10;;;;;;;10.65;5.82;;;;;;;;;;5036994;28;20581;-83
2024/01/21 11:56:36;;;;;;;11.05;6.85;;;;;;;;;;5051550;28;20033;-83
2024/01/21 11:59:05;;;;;;;8.73;5.47;;;;;;;;;;5045226;28;20118;-83
2024/01/21 12:01:33;;;;;;;11.70;6.28;;;;;;;;;;5046325;28;20569;-84
2024/01/21 12:04:00;;;;;;;10.77;6.53;;;;;;;;;;5044647;28;20127;-83
2024/01/21 12:06:26;;;;;;;8.70;5.30;;;;;;;;;;5028857;28;20045;-86
2024/01/21 12:08:52;;;;;;;9.00;6.28;;;;;;;;;;5045651;28;20055;-83
2024/01/21 12:11:18;;;;;;;13.02;6.40;;;;;;;;;;5044115;28;20128;-84
2024/01/21 12:13:45;;;;;;;9.70;6.10;;;;;;;;;;5028754;28;20041;-85
2024/01/21 12:16:11;;;;;;;8.43;5.57;;;;;;;;;;5026416;28;20072;-83
2024/01/21 12:18:41;;;;;;;11.90;6.13;;;;;;;;;;5037852;28;20056;-83
2024/01/21 12:21:08;;;;;;;11.85;6.45;;;;;;;;;;5025289;28;20414;-84
2024/01/21 12:23:35;;;;;;;12.75;6.90;;;;;;;;;;5028312;28;20047;-85
2024/01/21 12:26:02;;;;;;;12.18;6.55;;;;;;;;;;5021911;28;20084;-84
2024/01/21 12:28:28;;;;;;;10.02;6.15;;;;;;;;;;5031562;28;20048;-83
2024/01/21 12:30:55;;;;;;;11.63;6.38;;;;;;;;;;5031588;28;20045;-82
2024/01/21 12:33:21;;;;;;;11.27;5.65;;;;;;;;;;5027893;28;20033;-84
2024/01/21 12:35:47;;;;;;;11.68;6.38;;;;;;;;;;5026377;28;20045;-83
2024/01/21 12:38:15;;;;;;;11.40;6.75;;;;;;;;;;5019318;28;20057;-82
2024/01/21 12:40:42;;;;;;;9.77;7.25;;;;;;;;;;5045432;28;20045;-82
2024/01/21 12:43:09;;;;;;;12.02;6.45;;;;;;;;;;5042639;28;20084;-83
2024/01/21 12:45:36;;;;;;;13.68;8.18;;;;;;;;;;5027674;28;20052;-84
2024/01/21 12:48:02;;;;;;;11.25;6.95;;;;;;;;;;5026207;28;20411;-84
2024/01/21 12:50:28;;;;;;;13.70;7.03;;;;;;;;;;5026415;28;20040;-83
2024/01/21 12:52:55;;;;;;;12.50;7.05;;;;;;;;;;5021120;28;20049;-83
2024/01/21 12:55:22;;;;;;;13.85;6.68;;;;;;;;;;5044010;28;20065;-84
2024/01/21 12:57:48;;;;;;;14.10;7.28;;;;;;;;;;5050038;28;20068;-84
2024/01/21 13:00:14;;;;;;;11.55;6.53;;;;;;;;;;5023078;28;20042;-84
2024/01/21 13:02:40;;;;;;;12.15;6.80;;;;;;;;;;5035274;28;20114;-83
2024/01/21 13:05:06;;;;;;;12.65;7.20;;;;;;;;;;5027718;28;20507;-83
2024/01/21 13:07:33;;;;;;;14.05;6.68;;;;;;;;;;5023962;28;20053;-82
2024/01/21 13:09:59;;;;;;;12.27;7.50;;;;;;;;;;5042866;28;20041;-84
2024/01/21 13:12:25;;;;;;;17.63;8.02;;;;;;;;;;5023979;28;20044;-84
2024/01/21 13:14:51;;;;;;;15.57;7.68;;;;;;;;;;5030571;28;20036;-82
2024/01/21 13:17:17;;;;;;;11.32;6.85;;;;;;;;;;5042803;28;20853;-84
2024/01/21 13:19:43;;;;;;;14.45;7.40;;;;;;;;;;5022212;28;20044;-82
2024/01/21 13:22:09;;;;;;;11.68;7.40;;;;;;;;;;5040030;28;20059;-82
2024/01/21 13:24:35;;;;;;;12.68;7.50;;;;;;;;;;5037691;28;20060;-82
2024/01/21 13:27:09;;;;;;;15.57;7.22;;;;;;;;;;5030339;28;20045;-82
2024/01/21 13:32:21;;;;;;;13.90;6.60;;;;;;;;;;5041911;28;20048;-82
2024/01/21 13:34:47;;;;;;;21.30;7.03;;;;;;;;;;5040832;28;20037;-82
2024/01/21 13:37:14;;;;;;;15.48;6.55;;;;;;;;;;5025025;28;20051;-83
2024/01/21 13:39:41;;;;;;;15.75;8.10;;;;;;;;;;5022070;28;20120;-82
2024/01/21 13:42:07;;;;;;;9.85;6.68;;;;;;;;;;5037802;28;20052;-82
2024/01/21 13:44:33;;;;;;;14.68;7.05;;;;;;;;;;5040637;28;20120;-84
2024/01/21 13:46:59;;;;;;;12.32;7.90;;;;;;;;;;5031595;28;20491;-84
2024/01/21 13:49:25;;;;;;;13.60;7.18;;;;;;;;;;5023475;28;20573;-83
2024/01/21 13:51:52;;;;;;;16.20;7.35;;;;;;;;;;5021832;28;20036;-84
2024/01/21 13:54:19;;;;;;;15.10;7.80;;;;;;;;;;5041870;28;20072;-84
2024/01/21 13:56:46;;;;;;;17.52;7.53;;;;;;;;;;5027517;28;20044;-83
2024/01/21 13:59:12;;;;;;;14.98;7.72;;;;;;;;;;5028215;28;20099;-84
2024/01/21 14:01:38;;;;;;;16.67;8.15;;;;;;;;;;5045298;28;20037;-83
2024/01/21 14:04:05;;;;;;;14.90;7.57;;;;;;;;;;5039463;28;20095;-84
2024/01/21 14:06:31;;;;;;;14.18;8.48;;;;;;;;;;5033380;28;20877;-85
2024/01/21 14:08:57;;;;;;;13.63;7.60;;;;;;;;;;5025108;28;20045;-84
2024/01/21 14:11:23;;;;;;;15.80;8.07;;;;;;;;;;5028598;28;20072;-83
2024/01/21 14:13:50;;;;;;;12.70;6.85;;;;;;;;;;5041089;28;20076;-83
2024/01/21 14:16:17;;;;;;;13.13;7.65;;;;;;;;;;5041104;28;20040;-83
2024/01/21 14:18:46;;;;;;;18.48;9.18;;;;;;;;;;5037273;28;20052;-83
2024/01/21 14:21:13;;;;;;;17.85;8.55;;;;;;;;;;5031845;28;20049;-83
2024/01/21 14:23:39;;;;;;;11.50;7.18;;;;;;;;;;5042242;28;20123;-84
2024/01/21 14:26:09;;;;;;;11.48;7.63;;;;;;;;;;5039896;28;20578;-83
2024/01/21 14:28:38;;;;;;;14.32;6.35;;;;;;;;;;5037908;28;20045;-83
2024/01/21 14:31:04;;;;;;;13.55;7.20;;;;;;;;;;5043432;28;20044;-85
2024/01/21 14:33:31;;;;;;;15.10;7.35;;;;;;;;;;5032799;28;20041;-83
2024/01/21 14:35:58;;;;;;;13.68;9.02;;;;;;;;;;5030173;28;20037;-84